SPRUSPJR

Guest
Details From SPRU - CAPITAN CARLOS MARTINEZ DE PINILLOS
To SPJR - GEN FAP ARMANDO REVOREDO IGLESIAS
Flight Number -
Tags generated
Created
Modified
Stats Distance 68 nm / 125 km
Max Altitude 0 ft / 0 m
Waypoints 3
Social Downloads 0
Likes 0
Share VATSIM

Download

Looking for another format? Having issues loading an existing format? Contact us
Advertisement - Login to hide

Notes

Basic altitude profile: - Ascent Rate: 2500ft/min - Ascent Speed: 250kts - Cruise Altitude: 35000ft - Cruise Speed: 420kts - Descent Rate: 1500ft/min - Descent Speed: 250kts

Route

SPRU MAR SPJR

ID Type Via Altitude Latitude Longitude Leg Dist Tot Dist Heading (true) Name
O SPRU APT - 0 ft / 0 m -8.08141˚ -79.10876˚ - 0 nm - CAPITAN CARLOS MARTINEZ DE PINILLOS
MAR NDB - 0 ft / 0 m -7.14000˚ -78.49056˚ 67 nm 67 nm 33° / 33° CAJAMARCA NDB
O SPJR APT - 0 ft / 0 m -7.13918˚ -78.48940˚ 0 nm 67 nm 55° / 55° GEN FAP ARMANDO REVOREDO IGLESIAS

Altitude Profile

Advertisement - Login to hide

SPRU

Details ICAO SPRU (TRU)
Name CAPITAN CARLOS MARTINEZ DE PINILLOS
Region Peru
Timezone America/Lima (UTC-5.0)
Stats Elevation 106 ft / 32 m (AMSL)
Location -8.081411° -79.108762°
Runways 1
Magnetic Variation 1.366° W

METAR

SPRU 181100Z 13006KT 8000 FEW100 17/16 Q1011 RMK BR PP000

Decode

TAF

SPRU 180500Z 1806/1906 13006KT 7000 SCT020 SCT050 TX22/1820Z TN17/1811Z TEMPO 1810/1813 5000 BR BKN015 SCT050 FM181500 17010KT 9999 SCT030 FM190100 14008KT 9999 BKN020

Decode

Departure Runways

ID Width Length Bearing (true) Bearing (mag) Surface Threshold Offset Overrun Length
02 145 ft / 44 m 9,972 ft / 3,040 m 16.81° 18.18° Asphalt 0 ft / 0 m 210 ft / 64 m
20 145 ft / 44 m 9,972 ft / 3,040 m 196.81° 198.18° Asphalt 0 ft / 0 m 205 ft / 62 m

SPJR

Details ICAO SPJR (CJA)
Name GEN FAP ARMANDO REVOREDO IGLESIAS
Region Peru
Timezone America/Lima (UTC-5.0)
Stats Elevation 8,781 ft / 2,676 m (AMSL)
Location -7.139184° -78.489400°
Runways 1
Magnetic Variation 2.039° W

METAR

SPJR 181100Z VRB01KT 9999 VCFG SCT026 BKN040 09/09 Q1026 RMK PP000

Decode

TAF

Not found

Destination Runways

ID Width Length Bearing (true) Bearing (mag) Surface Threshold Offset Overrun Length
16 148 ft / 45 m 8,206 ft / 2,501 m 157.82° 159.86° Asphalt 0 ft / 0 m 190 ft / 58 m
34 148 ft / 45 m 8,206 ft / 2,501 m 337.82° 339.86° Asphalt 0 ft / 0 m 190 ft / 58 m

Popular Alternatives